EDT,Max TemperatureF,Mean TemperatureF,Min TemperatureF,Max Dew PointF,MeanDew PointF,Min DewpointF,Max Humidity, Mean Humidity, Min Humidity, Max Sea Level PressureIn, Mean Sea Level PressureIn, Min Sea Level PressureIn, Max VisibilityMiles, Mean VisibilityMiles, Min VisibilityMiles, Max Wind SpeedMPH, Mean Wind SpeedMPH, Max Gust SpeedMPH,PrecipitationIn, CloudCover, Events, WindDirDegrees
2013-10-1,81,69,56,57,55,53,93,68,42,30.15,30.09,30.05,10,10,9,12,3,20,0.00,2,,306
2013-10-2,83,70,56,59,56,53,93,67,40,30.17,30.12,30.07,10,10,10,13,3,16,0.00,1,,308
2013-10-3,81,69,57,62,58,55,93,69,45,30.17,30.12,30.08,10,10,10,7,1,13,0.00,1,,360
2013-10-4,86,73,59,63,60,58,97,70,43,30.17,30.11,30.07,10,10,9,10,2,,0.00,1,,292
2013-10-5,86,73,60,63,61,58,93,68,43,30.16,30.10,30.04,10,10,10,10,3,17,0.00,1,,15
2013-10-6,84,72,59,63,61,58,97,72,46,30.06,29.99,29.91,10,10,8,20,5,24,0.00,1,,170
2013-10-7,71,61,51,66,58,43,93,73,52,30.11,29.90,29.80,10,8,2,18,7,21,2.01,6,Rain-Thunderstorm,265
2013-10-8,69,58,47,47,43,42,83,64,45,30.29,30.22,30.11,10,10,10,16,5,21,0.00,0,,38
2013-10-9,67,57,47,47,44,40,93,65,37,30.32,30.26,30.22,10,10,10,15,7,18,0.00,1,,28
2013-10-10,67,59,51,56,51,42,89,78,66,30.19,30.12,30.01,10,10,5,16,8,20,0.11,8,Rain,12
2013-10-11,74,67,59,59,55,51,80,71,61,30.02,29.99,29.94,10,10,10,13,7,17,0.00,8,,9
2013-10-12,68,64,59,62,58,55,93,83,73,30.16,30.07,30.01,10,9,2,10,4,,0.08,8,Rain,20
2013-10-13,67,63,59,59,58,56,97,85,73,30.29,30.23,30.15,10,10,7,12,6,17,0.03,8,Rain,24
2013-10-14,69,63,57,58,57,55,93,81,68,30.33,30.28,30.22,10,8,2,13,5,20,0.18,8,Rain,38
2013-10-15,69,60,51,54,53,48,100,77,53,30.25,30.20,30.11,10,8,0,7,1,9,0.00,3,Fog,36
2013-10-16,71,61,51,57,54,51,100,79,57,30.11,30.04,29.96,10,10,9,9,1,10,0.00,3,,173
2013-10-17,67,62,56,62,58,48,93,80,67,29.97,29.90,29.81,10,10,6,18,4,23,0.05,6,Rain,235
2013-10-18,67,58,48,46,42,39,80,60,40,30.06,30.01,29.95,10,10,10,24,5,30,0.00,0,,284
2013-10-19,60,54,47,54,48,40,93,74,55,30.01,29.93,29.85,10,10,10,20,3,26,0.00,4,,239
2013-10-20,63,51,39,39,34,32,83,59,35,30.14,30.07,29.97,10,10,10,22,4,30,0.00,0,,318
2013-10-21,66,51,36,47,42,34,92,70,48,30.19,30.10,29.99,10,10,10,14,3,20,0.00,0,,120
2013-10-22,65,57,48,47,45,44,93,71,48,29.99,29.91,29.83,10,10,10,18,7,32,T,6,,304
2013-10-23,59,51,42,47,39,27,93,68,43,30.01,29.81,29.72,10,10,9,31,9,39,T,5,Rain,311
2013-10-24,49,41,33,31,29,26,82,64,45,30.22,30.12,30.02,10,10,10,18,8,25,T,6,,272
2013-10-25,50,41,31,28,25,22,82,59,36,30.39,30.33,30.23,10,10,10,22,7,30,0.00,3,,305
2013-10-26,59,43,27,32,25,17,85,53,21,30.37,30.21,30.04,10,10,10,28,7,38,0.00,3,,251
2013-10-27,66,54,42,38,34,31,76,53,29,30.14,30.08,30.03,10,10,10,21,4,29,0.00,1,,288
2013-10-28,64,51,38,51,43,35,92,74,56,30.28,30.23,30.15,10,10,10,9,4,13,T,5,,280
2013-10-29,69,60,51,52,50,47,96,71,45,30.37,30.31,30.27,10,10,7,12,3,14,T,5,Rain,156
2013-10-30,72,63,53,58,53,48,93,75,57,30.30,30.24,30.16,10,8,2,14,2,16,0.07,8,Rain,193
2013-10-31,70,63,56,58,56,53,93,75,57,30.18,30.03,29.80,10,9,6,15,5,21,0.01,5,Rain,165